createdAt,value
2018-01-30T00:00:55.245Z,5.11
2018-01-30T00:01:55.204Z,5.14
2018-01-30T00:02:55.167Z,5.08
2018-01-30T00:03:55.128Z,5.00
2018-01-30T00:04:55.093Z,5.00
2018-01-30T00:05:55.089Z,4.99
2018-01-30T00:06:55.012Z,4.97
2018-01-30T00:07:54.968Z,4.99
2018-01-30T00:08:54.940Z,5.00
2018-01-30T00:09:54.949Z,4.99
2018-01-30T00:10:54.877Z,5.04
2018-01-30T00:11:54.809Z,5.02
2018-01-30T00:12:54.770Z,5.04
2018-01-30T00:13:54.732Z,5.10
2018-01-30T00:14:54.693Z,5.10
2018-01-30T00:15:54.651Z,5.11
2018-01-30T00:16:54.612Z,5.12
2018-01-30T00:17:54.572Z,5.14
2018-01-30T00:18:54.541Z,5.07
2018-01-30T00:19:54.493Z,5.10
2018-01-30T00:20:54.457Z,5.08
2018-01-30T00:21:54.414Z,5.08
2018-01-30T00:22:54.379Z,5.11
2018-01-30T00:23:54.344Z,5.07
2018-01-30T00:24:54.295Z,5.10
2018-01-30T00:25:54.254Z,5.10
2018-01-30T00:26:54.248Z,5.07
2018-01-30T00:27:54.176Z,5.14
2018-01-30T00:28:54.139Z,5.10
2018-01-30T00:29:54.108Z,5.08
2018-01-30T00:30:54.062Z,5.11
2018-01-30T00:31:54.032Z,5.07
2018-01-30T00:32:53.979Z,5.10
2018-01-30T00:33:53.939Z,5.07
2018-01-30T00:34:53.898Z,5.11
2018-01-30T00:35:53.872Z,5.12
2018-01-30T00:36:53.825Z,5.12
2018-01-30T00:37:53.779Z,5.07
2018-01-30T00:38:53.739Z,5.10
2018-01-30T00:39:53.740Z,5.08
2018-01-30T00:40:53.660Z,5.23
2018-01-30T00:41:53.627Z,5.18
2018-01-30T00:42:54.462Z,5.17
2018-01-30T00:43:53.546Z,5.15
2018-01-30T00:44:53.503Z,5.14
2018-01-30T00:45:53.461Z,5.07
2018-01-30T00:46:53.424Z,5.12
2018-01-30T00:47:53.391Z,5.14
2018-01-30T00:48:53.344Z,5.07
2018-01-30T00:49:53.308Z,5.14
2018-01-30T00:50:53.290Z,5.11
2018-01-30T00:51:53.226Z,5.02
2018-01-30T00:52:53.187Z,5.05
2018-01-30T00:53:53.204Z,5.04
2018-01-30T00:54:53.106Z,5.07
2018-01-30T00:55:53.098Z,5.00
2018-01-30T00:56:53.029Z,5.00
2018-01-30T00:57:53.009Z,4.99
2018-01-30T00:58:52.960Z,4.90
2018-01-30T00:59:52.908Z,5.04
2018-01-30T01:00:52.905Z,4.92
2018-01-30T01:01:52.851Z,5.04
2018-01-30T01:02:52.789Z,4.90
2018-01-30T01:03:52.772Z,4.87
2018-01-30T01:04:52.711Z,4.94
2018-01-30T01:05:52.671Z,4.94
2018-01-30T01:06:52.638Z,4.93
2018-01-30T01:07:52.592Z,4.99
2018-01-30T01:08:52.551Z,4.87
2018-01-30T01:09:52.512Z,4.94
2018-01-30T01:10:52.470Z,4.90
2018-01-30T01:11:52.432Z,4.80
2018-01-30T01:12:52.401Z,4.82
2018-01-30T01:13:52.389Z,4.84
2018-01-30T01:14:52.314Z,4.82
2018-01-30T01:15:52.274Z,4.82
2018-01-30T01:16:52.253Z,4.75
2018-01-30T01:17:52.192Z,4.78
2018-01-30T01:18:52.175Z,4.75
2018-01-30T01:19:52.113Z,4.82
2018-01-30T01:20:52.075Z,4.82
2018-01-30T01:21:52.033Z,4.82
2018-01-30T01:22:51.994Z,4.93
2018-01-30T01:23:51.955Z,4.87
2018-01-30T01:24:51.914Z,4.86
2018-01-30T01:25:51.884Z,4.93
2018-01-30T01:26:51.837Z,4.94
2018-01-30T01:27:51.799Z,4.90
2018-01-30T01:28:51.755Z,4.92
2018-01-30T01:29:51.734Z,4.93
2018-01-30T01:30:51.674Z,4.89
2018-01-30T01:31:51.638Z,4.92
2018-01-30T01:32:51.628Z,4.87
2018-01-30T01:33:51.562Z,4.89
2018-01-30T01:34:51.516Z,4.89
2018-01-30T01:35:51.479Z,4.92
2018-01-30T01:36:51.435Z,4.97
2018-01-30T01:37:51.404Z,4.96
2018-01-30T01:38:51.374Z,5.04
2018-01-30T01:39:51.320Z,4.93
2018-01-30T01:40:51.294Z,4.99
2018-01-30T01:41:51.243Z,4.93
2018-01-30T01:42:51.232Z,4.94
2018-01-30T01:43:51.157Z,4.99
2018-01-30T01:44:51.129Z,4.96
2018-01-30T01:45:51.078Z,4.87
2018-01-30T01:46:51.043Z,4.93
2018-01-30T01:47:50.999Z,4.92
2018-01-30T01:48:50.960Z,4.80
2018-01-30T01:49:50.922Z,4.78
2018-01-30T01:50:50.880Z,4.84
2018-01-30T01:51:50.851Z,4.92
2018-01-30T01:52:50.797Z,4.84
2018-01-30T01:53:50.795Z,4.92
2018-01-30T01:54:50.731Z,4.94
2018-01-30T01:55:50.691Z,4.90
2018-01-30T01:56:50.641Z,4.90
2018-01-30T01:57:50.601Z,4.87
2018-01-30T01:58:50.571Z,4.97
2018-01-30T01:59:50.525Z,4.89
2018-01-30T02:00:50.480Z,4.86
2018-01-30T02:01:50.452Z,4.90
2018-01-30T02:02:50.403Z,4.89
2018-01-30T02:03:50.363Z,4.93
2018-01-30T02:04:50.335Z,4.93
2018-01-30T02:05:50.302Z,4.87
2018-01-30T02:06:50.243Z,4.84
2018-01-30T02:07:50.201Z,4.87
2018-01-30T02:08:50.176Z,4.99
2018-01-30T02:09:50.123Z,4.80
2018-01-30T02:10:50.087Z,4.84
2018-01-30T02:11:50.049Z,4.80
2018-01-30T02:12:50.003Z,4.74
2018-01-30T02:13:49.968Z,4.70
2018-01-30T02:14:49.922Z,4.66
2018-01-30T02:15:49.885Z,4.67
2018-01-30T02:16:49.856Z,4.60
2018-01-30T02:17:49.866Z,4.58
2018-01-30T02:18:49.767Z,4.55
2018-01-30T02:19:49.725Z,4.53
2018-01-30T02:20:49.686Z,4.59
2018-01-30T02:21:49.662Z,4.60
2018-01-30T02:22:49.603Z,4.58
2018-01-30T02:23:49.570Z,4.42
2018-01-30T02:24:49.528Z,4.48
2018-01-30T02:25:49.486Z,4.40
2018-01-30T02:26:49.447Z,4.40
2018-01-30T02:27:49.407Z,4.40
2018-01-30T02:28:49.379Z,4.45
2018-01-30T02:29:49.357Z,4.41
2018-01-30T02:30:49.316Z,4.41
2018-01-30T02:31:49.264Z,4.32
2018-01-30T02:32:49.221Z,4.40
2018-01-30T02:33:49.184Z,4.35
2018-01-30T02:34:49.152Z,4.32
2018-01-30T02:35:49.090Z,4.31
2018-01-30T02:36:49.048Z,4.37
2018-01-30T02:37:49.045Z,4.32
2018-01-30T02:38:48.968Z,4.35
2018-01-30T02:39:48.951Z,4.35
2018-01-30T02:40:48.894Z,4.40
2018-01-30T02:41:48.850Z,4.35
2018-01-30T02:42:48.811Z,4.45
2018-01-30T02:43:48.777Z,4.41
2018-01-30T02:44:48.728Z,4.55
2018-01-30T02:45:48.695Z,4.53
2018-01-30T02:46:48.655Z,4.53
2018-01-30T02:47:48.649Z,4.55
2018-01-30T02:48:48.574Z,4.49
2018-01-30T02:49:48.539Z,4.58
2018-01-30T02:50:48.512Z,4.52
2018-01-30T02:51:48.449Z,4.48
2018-01-30T02:52:48.424Z,4.40
2018-01-30T02:53:48.372Z,4.45
2018-01-30T02:54:48.338Z,4.52
2018-01-30T02:55:48.323Z,4.48
2018-01-30T02:56:48.249Z,4.42
2018-01-30T02:57:48.208Z,4.40
2018-01-30T02:58:48.170Z,4.42
2018-01-30T02:59:48.154Z,4.37
2018-01-30T03:00:48.102Z,4.35
2018-01-30T03:01:48.050Z,4.24
2018-01-30T03:02:48.019Z,4.38
2018-01-30T03:03:47.977Z,4.37
2018-01-30T03:04:47.933Z,4.38
2018-01-30T03:05:47.909Z,4.37
2018-01-30T03:06:47.854Z,4.40
2018-01-30T03:07:47.810Z,4.31
2018-01-30T03:08:47.771Z,4.31
2018-01-30T03:09:47.733Z,4.35
2018-01-30T03:10:47.708Z,4.37
2018-01-30T03:11:47.651Z,4.38
2018-01-30T03:12:47.613Z,4.40
2018-01-30T03:13:47.600Z,4.38
2018-01-30T03:14:47.536Z,4.37
2018-01-30T03:15:47.493Z,4.38
2018-01-30T03:16:47.473Z,4.35
2018-01-30T03:17:47.412Z,4.40
2018-01-30T03:18:47.375Z,4.42
2018-01-30T03:19:47.335Z,4.34
2018-01-30T03:20:47.319Z,4.34
2018-01-30T03:21:47.266Z,4.32
2018-01-30T03:22:47.222Z,4.28
2018-01-30T03:23:47.175Z,4.32
2018-01-30T03:24:47.144Z,4.35
2018-01-30T03:25:47.094Z,4.30
2018-01-30T03:26:47.053Z,4.19
2018-01-30T03:27:47.020Z,4.17
2018-01-30T03:28:46.973Z,4.24
2018-01-30T03:29:46.933Z,4.22
2018-01-30T03:30:46.894Z,4.24
2018-01-30T03:31:46.854Z,4.16
2018-01-30T03:32:46.817Z,4.22
2018-01-30T03:33:46.772Z,4.20
2018-01-30T03:34:46.733Z,4.26
2018-01-30T03:35:46.737Z,4.17
2018-01-30T03:36:46.654Z,4.34
2018-01-30T03:37:46.660Z,4.20
2018-01-30T03:38:46.578Z,4.30
2018-01-30T03:39:46.547Z,4.31
2018-01-30T03:40:46.500Z,4.26
2018-01-30T03:41:46.456Z,4.28
2018-01-30T03:42:46.412Z,4.23
2018-01-30T03:43:46.373Z,4.28
2018-01-30T03:44:46.336Z,4.24
2018-01-30T03:45:46.312Z,4.20
2018-01-30T03:46:46.267Z,4.22
2018-01-30T03:47:46.221Z,4.17
2018-01-30T03:48:46.176Z,4.20
2018-01-30T03:49:46.153Z,4.19
2018-01-30T03:50:46.105Z,4.20
2018-01-30T03:51:46.066Z,4.23
2018-01-30T03:52:46.023Z,4.17
2018-01-30T03:53:45.975Z,4.20
2018-01-30T03:54:45.943Z,4.28
2018-01-30T03:55:45.921Z,4.26
2018-01-30T03:56:45.867Z,4.20
2018-01-30T03:57:45.814Z,4.20
2018-01-30T03:58:45.776Z,4.24
2018-01-30T03:59:45.740Z,4.17
2018-01-30T04:00:45.712Z,4.20
2018-01-30T04:01:45.695Z,4.17
2018-01-30T04:02:45.626Z,4.30
2018-01-30T04:03:45.578Z,4.20
2018-01-30T04:04:45.533Z,4.17
2018-01-30T04:05:45.499Z,4.24
2018-01-30T04:06:45.452Z,4.22
2018-01-30T04:07:45.420Z,4.23
2018-01-30T04:08:45.387Z,4.24
2018-01-30T04:09:45.356Z,4.22
2018-01-30T04:10:45.294Z,4.28
2018-01-30T04:11:45.257Z,4.23
2018-01-30T04:12:45.214Z,4.28
2018-01-30T04:13:45.176Z,4.24
2018-01-30T04:14:45.139Z,4.22
2018-01-30T04:15:45.095Z,4.23
2018-01-30T04:16:45.073Z,4.17
2018-01-30T04:17:45.031Z,4.17
2018-01-30T04:18:44.972Z,4.19
2018-01-30T04:19:44.932Z,4.13
2018-01-30T04:20:44.926Z,4.06
2018-01-30T04:21:44.888Z,4.08
2018-01-30T04:22:44.830Z,4.16
2018-01-30T04:23:44.773Z,4.02
2018-01-30T04:24:44.754Z,4.06
2018-01-30T04:25:44.704Z,4.17
2018-01-30T04:26:44.659Z,4.05
2018-01-30T04:27:44.633Z,4.06
2018-01-30T04:28:44.586Z,4.14
2018-01-30T04:29:44.542Z,3.99
2018-01-30T04:30:45.457Z,4.02
2018-01-30T04:31:44.959Z,4.12
2018-01-30T04:32:44.421Z,4.05
2018-01-30T04:33:44.374Z,4.08
2018-01-30T04:34:44.332Z,4.05
2018-01-30T04:35:44.295Z,4.10
2018-01-30T04:36:44.251Z,4.10
2018-01-30T04:37:44.213Z,3.99
2018-01-30T04:38:44.212Z,3.98
2018-01-30T04:39:44.151Z,4.08
2018-01-30T04:40:44.093Z,4.04
2018-01-30T04:41:44.071Z,4.02
2018-01-30T04:42:44.013Z,3.99
2018-01-30T04:43:43.995Z,3.99
2018-01-30T04:44:43.930Z,4.02
2018-01-30T04:45:43.889Z,3.95
2018-01-30T04:46:43.852Z,4.02
2018-01-30T04:47:43.810Z,3.91
2018-01-30T04:48:43.780Z,3.92
2018-01-30T04:49:43.730Z,3.94
2018-01-30T04:50:43.689Z,3.98
2018-01-30T04:51:43.650Z,3.99
2018-01-30T04:52:43.627Z,4.04
2018-01-30T04:53:43.579Z,3.88
2018-01-30T04:54:43.533Z,3.94
2018-01-30T04:55:43.506Z,3.91
2018-01-30T04:56:43.468Z,3.95
2018-01-30T04:57:43.426Z,3.95
2018-01-30T04:58:43.373Z,3.91
2018-01-30T04:59:43.340Z,3.83
2018-01-30T05:00:43.288Z,3.83
2018-01-30T05:01:43.250Z,3.84
2018-01-30T05:02:43.206Z,3.80
2018-01-30T05:03:43.497Z,3.83
2018-01-30T05:04:43.132Z,3.80
2018-01-30T05:05:43.096Z,3.70
2018-01-30T05:06:43.048Z,3.78
2018-01-30T05:07:43.028Z,3.80
2018-01-30T05:08:42.973Z,3.87
2018-01-30T05:09:42.926Z,3.80
2018-01-30T05:10:42.889Z,3.83
2018-01-30T05:11:42.897Z,3.83
2018-01-30T05:12:42.810Z,3.83
2018-01-30T05:13:42.767Z,3.80
2018-01-30T05:14:42.754Z,3.66
2018-01-30T05:15:42.695Z,3.66
2018-01-30T05:16:42.657Z,3.68
2018-01-30T05:17:42.606Z,3.65
2018-01-30T05:18:42.565Z,3.51
2018-01-30T05:19:42.524Z,3.45
2018-01-30T05:20:42.523Z,3.48
2018-01-30T05:21:42.442Z,3.45
2018-01-30T05:22:42.406Z,3.50
2018-01-30T05:23:42.375Z,3.45
2018-01-30T05:24:42.327Z,3.31
2018-01-30T05:25:42.279Z,3.29
2018-01-30T05:26:42.242Z,3.47
2018-01-30T05:27:42.202Z,3.40
2018-01-30T05:28:42.200Z,3.37
2018-01-30T05:29:42.126Z,3.36
2018-01-30T05:30:42.083Z,3.41
2018-01-30T05:31:42.041Z,3.36
2018-01-30T05:32:41.997Z,3.32
2018-01-30T05:33:41.961Z,3.32
2018-01-30T05:34:41.923Z,3.34
2018-01-30T05:35:41.878Z,3.34
2018-01-30T05:36:41.838Z,3.31
2018-01-30T05:37:41.797Z,3.40
2018-01-30T05:38:41.756Z,3.34
2018-01-30T05:39:41.717Z,3.40
2018-01-30T05:40:41.683Z,3.34
2018-01-30T05:41:41.635Z,3.31
2018-01-30T05:42:41.593Z,3.48
2018-01-30T05:43:41.561Z,3.44
2018-01-30T05:44:41.512Z,3.47
2018-01-30T05:45:41.471Z,3.47
2018-01-30T05:46:41.433Z,3.56
2018-01-30T05:47:41.393Z,3.53
2018-01-30T05:48:41.356Z,3.53
2018-01-30T05:49:41.313Z,3.56
2018-01-30T05:50:41.277Z,3.51
2018-01-30T05:51:41.231Z,3.56
2018-01-30T05:52:41.188Z,3.65
2018-01-30T05:53:41.155Z,3.51
2018-01-30T05:54:41.133Z,3.60
2018-01-30T05:55:41.070Z,3.51
2018-01-30T05:56:41.048Z,3.55
2018-01-30T05:57:40.988Z,3.56
2018-01-30T05:58:40.980Z,3.60
2018-01-30T05:59:40.907Z,3.62
2018-01-30T06:00:40.865Z,3.73
2018-01-30T06:01:40.826Z,3.73
2018-01-30T06:02:40.792Z,3.63
2018-01-30T06:03:40.742Z,3.56
2018-01-30T06:04:40.703Z,3.53
2018-01-30T06:05:40.677Z,3.50
2018-01-30T06:06:40.623Z,3.58
2018-01-30T06:07:40.588Z,3.56
2018-01-30T06:08:40.541Z,3.56
2018-01-30T06:09:40.498Z,3.58
2018-01-30T06:10:40.469Z,3.51
2018-01-30T06:11:40.419Z,3.48
2018-01-30T06:12:40.378Z,3.47
2018-01-30T06:13:40.340Z,3.31
2018-01-30T06:14:40.297Z,3.37
2018-01-30T06:15:40.259Z,3.32
2018-01-30T06:16:40.216Z,3.29
2018-01-30T06:17:40.173Z,3.40
2018-01-30T06:18:40.161Z,3.34
2018-01-30T06:19:40.122Z,3.31
2018-01-30T06:20:40.056Z,3.32
2018-01-30T06:21:40.013Z,3.32
2018-01-30T06:22:39.974Z,3.16
2018-01-30T06:23:39.931Z,3.18
2018-01-30T06:24:39.891Z,3.14
2018-01-30T06:25:39.858Z,3.21
2018-01-30T06:26:39.845Z,3.11
2018-01-30T06:27:39.770Z,3.16
2018-01-30T06:28:39.727Z,3.05
2018-01-30T06:29:39.690Z,3.03
2018-01-30T06:30:39.649Z,2.98
2018-01-30T06:31:39.624Z,3.05
2018-01-30T06:32:39.565Z,3.03
2018-01-30T06:33:39.525Z,3.04
2018-01-30T06:34:39.485Z,3.05
2018-01-30T06:35:39.446Z,3.05
2018-01-30T06:36:39.409Z,3.04
2018-01-30T06:37:39.373Z,3.11
2018-01-30T06:38:39.323Z,3.05
2018-01-30T06:39:39.287Z,3.08
2018-01-30T06:40:39.242Z,3.10
2018-01-30T06:41:39.204Z,3.14
2018-01-30T06:42:39.160Z,3.21
2018-01-30T06:43:39.122Z,3.04
2018-01-30T06:44:39.081Z,3.03
2018-01-30T06:45:39.058Z,3.10
2018-01-30T06:46:38.996Z,2.97
2018-01-30T06:47:38.955Z,3.01
2018-01-30T06:48:38.918Z,3.04
2018-01-30T06:49:38.874Z,3.01
2018-01-30T06:50:38.834Z,2.90
2018-01-30T06:51:38.794Z,3.01
2018-01-30T06:52:38.767Z,2.95
2018-01-30T06:53:38.712Z,3.07
2018-01-30T06:54:38.674Z,3.07
2018-01-30T06:55:38.644Z,3.13
2018-01-30T06:56:38.595Z,3.22
2018-01-30T06:57:38.555Z,3.28
2018-01-30T06:58:38.510Z,3.31
2018-01-30T06:59:38.469Z,3.29
2018-01-30T07:00:38.433Z,3.37
2018-01-30T07:01:38.388Z,3.31
2018-01-30T07:02:38.347Z,3.41
2018-01-30T07:03:38.307Z,3.50
2018-01-30T07:04:38.268Z,3.44
2018-01-30T07:05:38.226Z,3.47
2018-01-30T07:06:38.189Z,3.45
2018-01-30T07:07:38.146Z,3.45
2018-01-30T07:08:38.107Z,3.45
2018-01-30T07:09:38.065Z,3.48
2018-01-30T07:10:38.225Z,3.48
2018-01-30T07:11:37.983Z,3.44
2018-01-30T07:12:37.955Z,3.51
2018-01-30T07:13:37.914Z,3.45
2018-01-30T07:14:37.862Z,3.47
2018-01-30T07:15:37.822Z,3.47
2018-01-30T07:16:37.781Z,3.47
2018-01-30T07:17:37.738Z,3.50
2018-01-30T07:18:37.698Z,3.34
2018-01-30T07:19:37.669Z,3.55
2018-01-30T07:20:37.618Z,3.47
2018-01-30T07:21:37.578Z,3.48
2018-01-30T07:22:37.536Z,3.51
2018-01-30T07:23:37.499Z,3.55
2018-01-30T07:24:37.462Z,3.48
2018-01-30T07:25:37.414Z,3.51
2018-01-30T07:26:37.376Z,3.55
2018-01-30T07:27:37.342Z,3.55
2018-01-30T07:28:37.295Z,3.66
2018-01-30T07:29:37.257Z,3.69
2018-01-30T07:30:37.227Z,3.76
2018-01-30T07:31:37.175Z,3.65
2018-01-30T07:32:37.136Z,3.73
2018-01-30T07:33:37.094Z,3.78
2018-01-30T07:34:37.054Z,3.88
2018-01-30T07:35:37.014Z,3.80
2018-01-30T07:36:36.982Z,3.86
2018-01-30T07:37:36.933Z,3.95
2018-01-30T07:38:36.895Z,3.92
2018-01-30T07:39:36.852Z,4.05
2018-01-30T07:40:36.814Z,3.96
2018-01-30T07:41:36.770Z,4.02
2018-01-30T07:42:36.744Z,4.01
2018-01-30T07:43:36.692Z,4.04
2018-01-30T07:44:36.651Z,4.16
2018-01-30T07:45:36.614Z,4.17
2018-01-30T07:46:36.572Z,4.20
2018-01-30T07:47:36.532Z,4.17
2018-01-30T07:48:36.504Z,4.26
2018-01-30T07:49:36.452Z,4.35
2018-01-30T07:50:36.413Z,4.48
2018-01-30T07:51:36.374Z,4.42
2018-01-30T07:52:36.334Z,4.52
2018-01-30T07:53:36.295Z,4.58
2018-01-30T07:54:36.264Z,4.71
2018-01-30T07:55:36.218Z,4.77
2018-01-30T07:56:36.180Z,4.77
2018-01-30T07:57:36.137Z,4.78
2018-01-30T07:58:36.097Z,4.87
2018-01-30T07:59:36.061Z,4.92
2018-01-30T08:00:36.021Z,5.02
2018-01-30T08:01:35.979Z,4.99
2018-01-30T08:02:35.949Z,5.11
2018-01-30T08:03:35.902Z,5.14
2018-01-30T08:04:35.866Z,5.23
2018-01-30T08:05:35.826Z,5.28
2018-01-30T08:06:35.787Z,5.39
2018-01-30T08:07:35.749Z,5.46
2018-01-30T08:08:35.726Z,5.59
2018-01-30T08:09:35.674Z,5.68
2018-01-30T08:10:35.635Z,5.80
2018-01-30T08:11:35.599Z,5.94
2018-01-30T08:12:35.561Z,5.93
2018-01-30T08:13:35.524Z,6.05
2018-01-30T08:14:35.488Z,6.17
2018-01-30T08:15:35.454Z,6.22
2018-01-30T08:16:35.412Z,6.36
2018-01-30T08:17:35.376Z,6.33
2018-01-30T08:18:35.344Z,6.46
2018-01-30T08:19:35.306Z,6.39
2018-01-30T08:20:35.277Z,6.38
2018-01-30T08:21:35.232Z,6.39
2018-01-30T08:22:35.196Z,6.41
2018-01-30T08:23:35.161Z,6.44
2018-01-30T08:24:35.126Z,6.57
2018-01-30T08:25:35.087Z,6.59
2018-01-30T08:26:35.064Z,6.54
2018-01-30T08:27:35.022Z,6.69
2018-01-30T08:28:34.986Z,6.72
2018-01-30T08:29:34.950Z,6.72
2018-01-30T08:30:34.913Z,6.87
2018-01-30T08:31:34.878Z,7.02
2018-01-30T08:32:34.844Z,7.07
2018-01-30T08:33:34.813Z,6.96
2018-01-30T08:34:34.777Z,7.10
2018-01-30T08:35:34.742Z,7.24
2018-01-30T08:36:34.708Z,7.24
2018-01-30T08:37:34.680Z,7.36
2018-01-30T08:38:34.637Z,7.45
2018-01-30T08:39:34.617Z,7.50
2018-01-30T08:40:34.571Z,7.69
2018-01-30T08:41:34.541Z,7.83
2018-01-30T08:42:34.531Z,7.91
2018-01-30T08:43:34.474Z,8.16
2018-01-30T08:44:34.436Z,8.20
2018-01-30T08:45:34.405Z,8.51
2018-01-30T08:46:34.375Z,8.76
2018-01-30T08:47:34.340Z,8.99
2018-01-30T08:48:34.312Z,9.25
2018-01-30T08:49:34.274Z,9.44
2018-01-30T08:50:34.245Z,9.50
2018-01-30T08:51:34.212Z,9.83
2018-01-30T08:52:34.255Z,9.87
2018-01-30T08:53:34.163Z,10.15
2018-01-30T08:54:34.126Z,10.38
2018-01-30T08:55:34.088Z,10.63
2018-01-30T08:56:34.059Z,10.89
2018-01-30T08:57:34.032Z,10.96
2018-01-30T08:58:33.997Z,11.43
2018-01-30T08:59:33.970Z,11.57
2018-01-30T09:00:33.939Z,11.97
2018-01-30T09:01:33.909Z,11.97
2018-01-30T09:02:33.882Z,12.07
2018-01-30T09:03:33.869Z,12.02
2018-01-30T09:04:33.830Z,12.10
2018-01-30T09:05:33.795Z,12.24
2018-01-30T09:06:33.771Z,12.31
2018-01-30T09:07:33.741Z,12.17
2018-01-30T09:08:33.712Z,11.95
2018-01-30T09:09:33.699Z,11.43
2018-01-30T09:10:33.662Z,11.84
2018-01-30T09:11:33.631Z,12.09
2018-01-30T09:12:33.602Z,12.13
2018-01-30T09:13:33.572Z,12.24
2018-01-30T09:14:33.548Z,12.49
2018-01-30T09:15:33.538Z,12.61
2018-01-30T09:16:33.494Z,12.75
2018-01-30T09:17:33.466Z,13.08
2018-01-30T09:18:33.439Z,13.46
2018-01-30T09:19:33.416Z,13.87
2018-01-30T09:20:33.386Z,14.12
2018-01-30T09:21:33.370Z,14.23
2018-01-30T09:22:33.337Z,14.51
2018-01-30T09:23:33.310Z,14.47
2018-01-30T09:24:33.286Z,14.29
2018-01-30T09:25:33.261Z,14.23
2018-01-30T09:26:33.236Z,14.12
2018-01-30T09:27:33.210Z,14.11
2018-01-30T09:28:33.203Z,14.08
2018-01-30T09:29:33.165Z,13.89
2018-01-30T09:30:33.136Z,13.65
2018-01-30T09:31:33.108Z,13.49
2018-01-30T09:32:33.084Z,13.23
2018-01-30T09:33:33.058Z,13.09
2018-01-30T09:34:33.041Z,13.00
2018-01-30T09:35:33.007Z,13.00
2018-01-30T09:36:32.982Z,12.73
2018-01-30T09:37:32.957Z,12.62
2018-01-30T09:38:32.929Z,12.93
2018-01-30T09:39:32.905Z,13.09
2018-01-30T09:40:32.886Z,12.86
2018-01-30T09:41:32.853Z,12.72
2018-01-30T09:42:32.824Z,12.70
2018-01-30T09:43:32.802Z,12.70
2018-01-30T09:44:32.772Z,12.85
2018-01-30T09:45:32.745Z,13.11
2018-01-30T09:46:32.721Z,13.13
2018-01-30T09:47:32.691Z,13.37
2018-01-30T09:48:32.675Z,13.42
2018-01-30T09:49:32.635Z,13.65
2018-01-30T09:50:32.610Z,13.74
2018-01-30T09:51:32.584Z,14.04
2018-01-30T09:52:32.556Z,14.05
2018-01-30T09:53:32.547Z,14.17
2018-01-30T09:54:32.501Z,14.44
2018-01-30T09:55:32.481Z,14.77
2018-01-30T09:56:32.450Z,15.14
2018-01-30T09:57:32.424Z,15.39
2018-01-30T09:58:32.423Z,15.55
2018-01-30T09:59:32.375Z,15.90
2018-01-30T10:00:32.359Z,16.15
2018-01-30T10:01:32.325Z,16.41
2018-01-30T10:02:32.302Z,16.49
2018-01-30T10:03:32.318Z,16.50
2018-01-30T10:04:32.254Z,16.57
2018-01-30T10:05:32.228Z,16.93
2018-01-30T10:06:32.212Z,16.54
2018-01-30T10:07:32.181Z,16.57
2018-01-30T10:08:32.161Z,16.20
2018-01-30T10:09:32.135Z,15.62
2018-01-30T10:10:32.133Z,15.35
2018-01-30T10:11:32.083Z,14.96
2018-01-30T10:12:32.059Z,14.68
2018-01-30T10:13:32.046Z,14.73
2018-01-30T10:14:32.005Z,14.63
2018-01-30T10:15:31.984Z,14.50
2018-01-30T10:16:31.958Z,14.33
2018-01-30T10:17:31.931Z,14.03
2018-01-30T10:18:31.903Z,13.89
2018-01-30T10:19:31.880Z,13.57
2018-01-30T10:20:31.844Z,13.63
2018-01-30T10:21:31.818Z,13.62
2018-01-30T10:22:31.793Z,13.46
2018-01-30T10:23:31.760Z,13.27
2018-01-30T10:24:31.739Z,13.35
2018-01-30T10:25:31.715Z,13.13
2018-01-30T10:26:31.672Z,13.23
2018-01-30T10:27:31.644Z,13.11
2018-01-30T10:28:31.615Z,13.09
2018-01-30T10:29:31.583Z,12.90
2018-01-30T10:30:31.555Z,12.87
2018-01-30T10:31:31.529Z,12.94
2018-01-30T10:32:31.507Z,12.82
2018-01-30T10:33:31.464Z,12.80
2018-01-30T10:34:31.438Z,13.25
2018-01-30T10:35:31.409Z,13.59
2018-01-30T10:36:31.375Z,13.87
2018-01-30T10:37:31.356Z,14.89
2018-01-30T10:38:31.322Z,15.35
2018-01-30T10:39:31.290Z,15.75
2018-01-30T10:40:31.267Z,16.29
2018-01-30T10:41:31.239Z,16.24
2018-01-30T10:42:31.210Z,16.56
2018-01-30T10:43:31.197Z,17.19
2018-01-30T10:44:31.159Z,17.42
2018-01-30T10:45:31.130Z,17.82
2018-01-30T10:46:31.110Z,17.97
2018-01-30T10:47:31.079Z,17.72
2018-01-30T10:48:31.057Z,17.29
2018-01-30T10:49:31.036Z,16.35
2018-01-30T10:50:31.008Z,15.83
2018-01-30T10:51:31.003Z,15.67
2018-01-30T10:52:30.957Z,15.11
2018-01-30T10:53:30.933Z,15.02
2018-01-30T10:54:30.911Z,15.21
2018-01-30T10:55:30.884Z,15.44
2018-01-30T10:56:30.861Z,15.25
2018-01-30T10:57:30.833Z,15.07
2018-01-30T10:58:30.825Z,14.82
2018-01-30T10:59:30.787Z,14.14
2018-01-30T11:00:30.762Z,14.22
2018-01-30T11:01:30.734Z,13.77
2018-01-30T11:02:30.731Z,13.78
2018-01-30T11:03:30.685Z,13.37
2018-01-30T11:04:30.666Z,13.39
2018-01-30T11:05:30.630Z,13.57
2018-01-30T11:06:30.603Z,13.53
2018-01-30T11:07:30.574Z,13.60
2018-01-30T11:08:30.550Z,13.39
2018-01-30T11:09:30.526Z,13.52
2018-01-30T11:10:30.495Z,13.78
2018-01-30T11:11:30.476Z,13.74
2018-01-30T11:12:30.442Z,13.68
2018-01-30T11:13:30.411Z,13.37
2018-01-30T11:14:30.389Z,13.25
2018-01-30T11:15:30.358Z,13.23
2018-01-30T11:16:30.330Z,13.18
2018-01-30T11:17:30.309Z,13.25
2018-01-30T11:18:30.275Z,13.44
2018-01-30T11:19:30.248Z,13.56
2018-01-30T11:20:30.216Z,14.03
2018-01-30T11:21:30.191Z,14.17
2018-01-30T11:22:30.164Z,14.11
2018-01-30T11:23:30.141Z,14.32
2018-01-30T11:24:30.108Z,14.66
2018-01-30T11:25:30.082Z,14.89
2018-01-30T11:26:30.057Z,15.28
2018-01-30T11:27:30.030Z,15.54
2018-01-30T11:28:30.011Z,15.67
2018-01-30T11:29:29.980Z,15.91
2018-01-30T11:30:29.952Z,16.29
2018-01-30T11:31:29.925Z,15.95
2018-01-30T11:32:29.901Z,15.51
2018-01-30T11:33:29.873Z,15.42
2018-01-30T11:34:29.848Z,15.83
2018-01-30T11:35:29.824Z,15.70
2018-01-30T11:36:29.803Z,15.83
2018-01-30T11:37:29.770Z,15.95
2018-01-30T11:38:29.743Z,16.23
2018-01-30T11:39:29.718Z,16.54
2018-01-30T11:40:29.689Z,16.17
2018-01-30T11:41:29.664Z,16.42
2018-01-30T11:42:29.642Z,16.24
2018-01-30T11:43:29.611Z,16.10
2018-01-30T11:44:29.586Z,16.60
2018-01-30T11:45:29.561Z,16.94
2018-01-30T11:46:29.537Z,17.06
2018-01-30T11:47:29.516Z,17.67
2018-01-30T11:48:29.482Z,18.00
2018-01-30T11:49:29.462Z,17.74
2018-01-30T11:50:29.434Z,17.87
2018-01-30T11:51:29.413Z,18.10
2018-01-30T11:52:29.388Z,18.28
2018-01-30T11:53:29.367Z,18.52
2018-01-30T11:54:29.338Z,18.56
2018-01-30T11:55:29.343Z,18.44
2018-01-30T11:56:29.288Z,18.40
2018-01-30T11:57:29.264Z,18.63
2018-01-30T11:58:29.246Z,18.74
2018-01-30T11:59:29.249Z,19.07
2018-01-30T12:00:29.207Z,19.44
2018-01-30T12:01:29.172Z,19.47
2018-01-30T12:02:29.152Z,19.34
2018-01-30T12:03:29.126Z,19.33
2018-01-30T12:04:29.105Z,18.74
2018-01-30T12:05:29.082Z,18.92
2018-01-30T12:06:29.064Z,18.90
2018-01-30T12:07:29.040Z,19.02
2018-01-30T12:08:29.011Z,18.75
2018-01-30T12:09:28.986Z,18.68
2018-01-30T12:10:28.965Z,18.47
2018-01-30T12:11:28.943Z,18.49
2018-01-30T12:12:28.920Z,18.74
2018-01-30T12:13:28.894Z,18.75
2018-01-30T12:14:28.867Z,19.16
2018-01-30T12:15:28.844Z,18.81
2018-01-30T12:16:28.823Z,18.74
2018-01-30T12:17:28.795Z,18.70
2018-01-30T12:18:28.778Z,18.80
2018-01-30T12:19:28.752Z,18.75
2018-01-30T12:20:28.725Z,18.56
2018-01-30T12:21:28.701Z,18.08
2018-01-30T12:22:28.680Z,18.16
2018-01-30T12:23:28.651Z,18.19
2018-01-30T12:24:28.659Z,17.85
2018-01-30T12:25:28.603Z,17.72
2018-01-30T12:26:28.597Z,17.12
2018-01-30T12:27:28.551Z,17.45
2018-01-30T12:28:28.527Z,17.45
2018-01-30T12:29:28.504Z,17.52
2018-01-30T12:30:28.487Z,18.08
2018-01-30T12:31:28.449Z,18.20
2018-01-30T12:32:28.427Z,18.52
2018-01-30T12:33:28.430Z,18.83
2018-01-30T12:34:28.374Z,18.90
2018-01-30T12:35:28.352Z,19.39
2018-01-30T12:36:28.333Z,19.69
2018-01-30T12:37:28.305Z,19.94
2018-01-30T12:38:28.296Z,20.06
2018-01-30T12:39:28.256Z,20.43
2018-01-30T12:40:28.236Z,20.92
2018-01-30T12:41:28.214Z,20.80
2018-01-30T12:42:28.190Z,21.29
2018-01-30T12:43:28.167Z,20.88
2018-01-30T12:44:28.152Z,20.40
2018-01-30T12:45:28.121Z,20.32
2018-01-30T12:46:28.095Z,20.11
2018-01-30T12:47:28.074Z,18.93
2018-01-30T12:48:28.054Z,18.81
2018-01-30T12:49:28.030Z,17.97
2018-01-30T12:50:28.008Z,17.85
2018-01-30T12:51:27.997Z,17.68
2018-01-30T12:52:27.962Z,17.26
2018-01-30T12:53:27.941Z,16.99
2018-01-30T12:54:27.917Z,16.79
2018-01-30T12:55:27.896Z,16.75
2018-01-30T12:56:27.866Z,16.38
2018-01-30T12:57:27.849Z,16.26
2018-01-30T12:58:27.820Z,15.80
2018-01-30T12:59:27.793Z,15.68
2018-01-30T13:00:27.766Z,15.72
2018-01-30T13:01:27.742Z,15.37
2018-01-30T13:02:27.717Z,15.27
2018-01-30T13:03:27.697Z,15.04
2018-01-30T13:04:27.662Z,15.04
2018-01-30T13:05:27.634Z,14.51
2018-01-30T13:06:27.612Z,14.47
2018-01-30T13:07:27.577Z,14.48
2018-01-30T13:08:27.550Z,14.14
2018-01-30T13:09:27.529Z,14.22